createdAt,value
2022-12-29T00:02:25.295Z,84.39
2022-12-29T00:07:21.240Z,84.91
2022-12-29T00:12:15.898Z,85.44
2022-12-29T00:17:09.549Z,84.82
2022-12-29T00:22:20.118Z,85.53
2022-12-29T00:27:33.063Z,86.35
2022-12-29T00:32:43.952Z,87.17
2022-12-29T00:37:55.302Z,87.38
2022-12-29T00:43:07.539Z,87.68
2022-12-29T00:48:00.843Z,87.70
2022-12-29T00:52:56.849Z,88.02
2022-12-29T00:57:51.493Z,88.33
2022-12-29T01:02:44.891Z,88.44
2022-12-29T01:07:38.232Z,89.46
2022-12-29T01:12:43.052Z,89.40
2022-12-29T01:17:41.451Z,89.20
2022-12-29T01:22:34.690Z,89.21
2022-12-29T01:27:28.407Z,89.40
2022-12-29T01:32:21.615Z,89.37
2022-12-29T01:37:16.262Z,89.12
2022-12-29T01:42:18.483Z,88.78
2022-12-29T01:47:12.163Z,88.10
2022-12-29T01:52:09.012Z,88.44
2022-12-29T01:57:08.996Z,88.14
2022-12-29T02:02:02.790Z,88.89
2022-12-29T02:06:59.438Z,88.24
2022-12-29T02:11:53.205Z,88.48
2022-12-29T02:17:04.323Z,88.94
2022-12-29T02:22:09.876Z,88.66
2022-12-29T02:27:21.930Z,89.39
2022-12-29T02:32:27.339Z,90.13
2022-12-29T02:37:27.675Z,89.28
2022-12-29T02:42:29.237Z,88.69
2022-12-29T02:47:33.325Z,88.57
2022-12-29T02:52:32.549Z,88.67
2022-12-29T02:57:34.482Z,88.91
2022-12-29T03:02:41.836Z,89.47
2022-12-29T03:07:43.505Z,90.36
2022-12-29T03:13:03.111Z,90.25
2022-12-29T03:18:02.385Z,90.55
2022-12-29T03:23:01.723Z,90.69
2022-12-29T03:28:00.915Z,90.71
2022-12-29T03:33:00.963Z,90.25
2022-12-29T03:38:03.213Z,90.06
2022-12-29T03:42:57.496Z,89.93
2022-12-29T03:47:51.017Z,90.41
2022-12-29T03:52:46.803Z,90.99
2022-12-29T03:57:40.238Z,91.28
2022-12-29T04:02:35.972Z,91.38
2022-12-29T04:07:29.847Z,91.00
2022-12-29T04:12:25.696Z,91.31
2022-12-29T04:17:19.081Z,91.09
2022-12-29T04:22:14.910Z,91.25
2022-12-29T04:27:08.309Z,91.08
2022-12-29T04:32:17.167Z,90.79
2022-12-29T04:37:15.780Z,90.66
2022-12-29T04:42:09.098Z,91.14
2022-12-29T04:47:02.381Z,91.83
2022-12-29T04:52:09.443Z,91.97
2022-12-29T04:57:04.091Z,92.12
2022-12-29T05:01:57.820Z,92.16
2022-12-29T05:06:51.220Z,91.48
2022-12-29T05:11:46.326Z,90.67
2022-12-29T05:16:39.854Z,89.94
2022-12-29T05:21:33.115Z,90.04
2022-12-29T05:26:27.418Z,90.63
2022-12-29T05:31:37.235Z,90.98
2022-12-29T05:36:37.460Z,91.73
2022-12-29T05:41:31.623Z,91.62
2022-12-29T05:46:58.324Z,91.94
2022-12-29T05:52:15.627Z,92.16
2022-12-29T05:57:09.105Z,91.85
2022-12-29T06:02:04.725Z,90.71
2022-12-29T06:06:58.422Z,90.16
2022-12-29T06:12:02.147Z,91.35
2022-12-29T06:16:56.286Z,91.04
2022-12-29T06:21:53.603Z,90.99
2022-12-29T06:26:47.282Z,91.19
2022-12-29T06:31:40.651Z,91.93
2022-12-29T06:36:34.012Z,92.12
2022-12-29T06:41:32.375Z,92.13
2022-12-29T06:46:42.993Z,92.51
2022-12-29T06:51:39.230Z,93.05
2022-12-29T06:56:33.835Z,93.48
2022-12-29T07:01:29.385Z,93.14
2022-12-29T07:06:23.552Z,93.59
2022-12-29T07:11:16.985Z,93.41
2022-12-29T07:16:14.525Z,93.56
2022-12-29T07:21:07.873Z,93.67
2022-12-29T07:26:05.414Z,93.19
2022-12-29T07:30:58.737Z,92.46
2022-12-29T07:35:53.689Z,92.72
2022-12-29T07:40:48.912Z,93.15
2022-12-29T07:45:42.180Z,93.42
2022-12-29T07:50:35.871Z,93.64
2022-12-29T07:55:30.646Z,93.37
2022-12-29T08:00:24.440Z,93.21
2022-12-29T08:05:18.757Z,92.77
2022-12-29T08:10:15.876Z,92.86
2022-12-29T08:15:12.480Z,92.48
2022-12-29T08:20:07.059Z,92.77
2022-12-29T08:25:00.326Z,92.51
2022-12-29T08:29:53.729Z,92.15
2022-12-29T08:34:48.502Z,91.70
2022-12-29T08:39:41.708Z,90.00
2022-12-29T08:44:34.891Z,89.21
2022-12-29T08:49:28.268Z,87.78
2022-12-29T08:54:23.048Z,86.80
2022-12-29T08:59:16.364Z,86.03
2022-12-29T09:04:15.524Z,84.84
2022-12-29T09:09:10.638Z,83.69
2022-12-29T09:14:05.907Z,82.90
2022-12-29T09:18:59.361Z,79.82
2022-12-29T09:23:53.073Z,76.67
2022-12-29T09:28:48.890Z,73.26
2022-12-29T09:33:43.616Z,70.87
2022-12-29T09:38:37.060Z,67.10
2022-12-29T09:43:49.394Z,62.57
2022-12-29T09:48:49.529Z,61.59
2022-12-29T09:53:48.252Z,61.47
2022-12-29T09:58:49.101Z,59.26
2022-12-29T10:03:56.907Z,59.79
2022-12-29T10:08:55.165Z,60.59
2022-12-29T10:14:03.069Z,61.12
2022-12-29T10:19:20.289Z,61.32
2022-12-29T10:24:15.151Z,61.29
2022-12-29T10:29:13.801Z,60.88
2022-12-29T10:34:20.843Z,60.71
2022-12-29T10:39:18.949Z,59.64
2022-12-29T10:44:17.152Z,57.66
2022-12-29T10:49:22.214Z,56.67
2022-12-29T10:54:23.960Z,57.01
2022-12-29T10:59:22.843Z,55.67
2022-12-29T11:04:32.951Z,55.34
2022-12-29T11:09:41.928Z,54.38
2022-12-29T11:14:36.771Z,55.51
2022-12-29T11:19:40.743Z,56.19
2022-12-29T11:24:34.348Z,54.61
2022-12-29T11:29:30.309Z,54.95
2022-12-29T11:34:26.882Z,56.59
2022-12-29T11:39:37.054Z,55.41
2022-12-29T11:44:42.311Z,55.15
2022-12-29T11:49:35.635Z,56.74
2022-12-29T11:54:35.649Z,58.78
2022-12-29T11:59:56.127Z,61.51
2022-12-29T12:04:53.435Z,62.69
2022-12-29T12:09:59.069Z,63.75
2022-12-29T12:15:00.521Z,65.59
2022-12-29T12:20:20.368Z,66.97
2022-12-29T12:25:20.327Z,67.33
2022-12-29T12:30:19.802Z,67.31
2022-12-29T12:35:21.347Z,65.42
2022-12-29T12:41:00.267Z,67.64
2022-12-29T12:46:22.727Z,68.37
2022-12-29T12:51:23.058Z,67.12
2022-12-29T12:56:39.122Z,66.69
2022-12-29T13:01:41.329Z,65.03
2022-12-29T13:06:42.576Z,65.64
2022-12-29T13:11:55.506Z,64.41
2022-12-29T13:16:56.369Z,65.45
2022-12-29T13:22:06.989Z,65.19
2022-12-29T13:27:11.803Z,64.59
2022-12-29T13:32:24.289Z,64.83
2022-12-29T13:37:21.118Z,64.16
2022-12-29T13:42:16.369Z,64.56
2022-12-29T13:47:26.777Z,65.23
2022-12-29T13:52:30.730Z,65.42
2022-12-29T13:57:37.345Z,65.78
2022-12-29T14:02:44.944Z,67.08
2022-12-29T14:07:44.020Z,68.23
2022-12-29T14:12:42.242Z,68.86
2022-12-29T14:17:37.433Z,68.85
2022-12-29T14:22:33.499Z,69.54
2022-12-29T14:27:54.516Z,69.80
2022-12-29T14:33:04.315Z,69.95
2022-12-29T14:38:17.037Z,70.12
2022-12-29T14:43:20.955Z,70.56
2022-12-29T14:48:47.420Z,71.06
2022-12-29T14:53:47.115Z,71.59
2022-12-29T14:58:48.701Z,70.85
2022-12-29T15:03:47.829Z,71.46
2022-12-29T15:08:48.899Z,71.54
2022-12-29T15:13:45.382Z,72.53
2022-12-29T15:18:40.415Z,72.80
2022-12-29T15:23:43.853Z,73.11
2022-12-29T15:28:44.610Z,73.78
2022-12-29T15:33:42.599Z,74.54
2022-12-29T15:38:42.275Z,74.85
2022-12-29T15:44:00.383Z,76.10
2022-12-29T15:48:53.675Z,76.92
2022-12-29T15:53:52.551Z,77.49
2022-12-29T15:58:48.710Z,77.84
2022-12-29T16:03:44.158Z,78.44
2022-12-29T16:08:42.202Z,79.05
2022-12-29T16:13:47.306Z,79.56
2022-12-29T16:18:40.690Z,79.92
2022-12-29T16:23:41.533Z,80.90
2022-12-29T16:28:43.224Z,80.09
2022-12-29T16:33:42.496Z,79.72
2022-12-29T16:38:37.244Z,79.64
2022-12-29T16:43:35.371Z,80.09
2022-12-29T16:48:30.488Z,80.44
2022-12-29T16:53:28.352Z,80.77
2022-12-29T16:58:26.513Z,81.09
2022-12-29T17:03:20.000Z,82.48
2022-12-29T17:08:24.038Z,82.95
2022-12-29T17:13:17.562Z,83.05
2022-12-29T17:18:14.046Z,82.72
2022-12-29T17:23:19.884Z,82.31
2022-12-29T17:28:23.413Z,82.43
2022-12-29T17:33:20.254Z,82.40
2022-12-29T17:38:29.153Z,82.39
2022-12-29T17:43:22.559Z,82.76
2022-12-29T17:48:19.726Z,83.31
2022-12-29T17:53:17.672Z,83.84
2022-12-29T17:58:18.402Z,84.15
2022-12-29T18:03:16.432Z,85.04
2022-12-29T18:08:13.454Z,84.96
2022-12-29T18:13:11.714Z,85.07
2022-12-29T18:18:12.299Z,85.43
2022-12-29T18:23:06.170Z,85.84
2022-12-29T18:28:00.933Z,86.13
2022-12-29T18:33:00.297Z,85.83
2022-12-29T18:37:53.641Z,86.23
2022-12-29T18:42:47.216Z,86.49
2022-12-29T18:47:41.873Z,86.43
2022-12-29T18:52:35.253Z,86.72
2022-12-29T18:57:30.734Z,86.69
2022-12-29T19:02:25.838Z,87.03
2022-12-29T19:07:20.456Z,87.26
2022-12-29T19:12:16.955Z,87.15
2022-12-29T19:17:12.473Z,87.98
2022-12-29T19:22:05.721Z,88.15
2022-12-29T19:27:01.479Z,88.18
2022-12-29T19:31:55.766Z,88.66
2022-12-29T19:36:49.130Z,89.21
2022-12-29T19:41:45.293Z,89.12
2022-12-29T19:46:40.049Z,88.90
2022-12-29T19:51:33.666Z,88.90
2022-12-29T19:56:26.954Z,88.37
2022-12-29T20:01:24.209Z,87.83
2022-12-29T20:06:19.944Z,88.21
2022-12-29T20:11:15.563Z,88.74
2022-12-29T20:16:13.122Z,88.83
2022-12-29T20:21:07.754Z,89.78
2022-12-29T20:26:03.073Z,89.86
2022-12-29T20:30:59.377Z,89.64
2022-12-29T20:35:52.963Z,89.87
2022-12-29T20:40:47.673Z,89.64
2022-12-29T20:45:45.252Z,89.57
2022-12-29T20:50:40.954Z,90.19
2022-12-29T20:55:40.918Z,90.56
2022-12-29T21:00:37.616Z,91.18
2022-12-29T21:05:34.836Z,91.48
2022-12-29T21:10:28.261Z,92.26
2022-12-29T21:15:34.655Z,91.44
2022-12-29T21:20:39.795Z,90.81
2022-12-29T21:25:38.039Z,91.21
2022-12-29T21:30:33.049Z,90.93
2022-12-29T21:35:26.708Z,91.66
2022-12-29T21:40:35.672Z,91.95
2022-12-29T21:45:31.055Z,92.44
2022-12-29T21:50:24.290Z,92.39
2022-12-29T21:55:17.576Z,92.27
2022-12-29T22:00:31.125Z,91.88
2022-12-29T22:05:43.225Z,92.40
2022-12-29T22:10:58.415Z,93.11
2022-12-29T22:15:53.148Z,94.01
2022-12-29T22:20:46.548Z,94.67
2022-12-29T22:25:43.674Z,95.45
2022-12-29T22:30:37.486Z,95.50
2022-12-29T22:35:32.292Z,92.79
2022-12-29T22:40:25.826Z,91.44
2022-12-29T22:45:19.329Z,90.34
2022-12-29T22:50:15.749Z,90.60
2022-12-29T22:55:10.996Z,90.77
2022-12-29T23:00:06.174Z,91.50
2022-12-29T23:05:03.574Z,92.04
2022-12-29T23:09:57.536Z,94.55
2022-12-29T23:14:52.772Z,98.87
2022-12-29T23:19:46.049Z,93.42
2022-12-29T23:24:39.363Z,91.46
2022-12-29T23:29:32.725Z,92.44
2022-12-29T23:34:27.638Z,93.40
2022-12-29T23:39:24.512Z,94.36
2022-12-29T23:44:17.787Z,93.38
2022-12-29T23:49:11.172Z,92.62
2022-12-29T23:54:06.443Z,93.16
2022-12-29T23:58:59.669Z,92.46
